createdAt,value
2022-12-23T00:00:57.650Z,9.20
2022-12-23T00:03:44.551Z,9.10
2022-12-23T00:06:31.281Z,9.10
2022-12-23T00:09:17.568Z,9.20
2022-12-23T00:12:21.350Z,9.20
2022-12-23T00:15:10.886Z,9.30
2022-12-23T00:17:57.500Z,9.30
2022-12-23T00:20:43.852Z,9.40
2022-12-23T00:23:32.630Z,9.30
2022-12-23T00:26:21.657Z,9.30
2022-12-23T00:29:07.967Z,9.40
2022-12-23T00:31:55.706Z,9.30
2022-12-23T00:34:42.393Z,9.30
2022-12-23T00:37:30.931Z,9.40
2022-12-23T00:40:35.174Z,9.50
2022-12-23T00:43:21.558Z,9.50
2022-12-23T00:46:08.275Z,9.50
2022-12-23T00:49:13.569Z,9.50
2022-12-23T00:52:00.608Z,9.50
2022-12-23T00:54:47.528Z,9.40
2022-12-23T00:57:34.021Z,9.50
2022-12-23T01:00:41.146Z,9.50
2022-12-23T01:03:46.038Z,9.50
2022-12-23T01:06:33.979Z,9.40
2022-12-23T01:09:20.405Z,9.30
2022-12-23T01:12:07.236Z,9.40
2022-12-23T01:14:53.671Z,9.30
2022-12-23T01:17:40.131Z,9.30
2022-12-23T01:20:27.007Z,9.30
2022-12-23T01:23:14.795Z,9.30
2022-12-23T01:26:03.142Z,9.30
2022-12-23T01:28:49.614Z,9.40
2022-12-23T01:31:35.968Z,9.30
2022-12-23T01:34:22.222Z,9.40
2022-12-23T01:37:08.497Z,9.40
2022-12-23T01:39:56.220Z,9.40
2022-12-23T01:42:44.700Z,9.50
2022-12-23T01:45:32.345Z,9.40
2022-12-23T01:48:22.355Z,9.50
2022-12-23T01:51:12.812Z,9.50
2022-12-23T01:54:02.112Z,9.40
2022-12-23T01:56:50.065Z,9.40
2022-12-23T01:59:54.254Z,9.40
2022-12-23T02:03:00.745Z,9.40
2022-12-23T02:05:47.968Z,9.40
2022-12-23T02:08:59.870Z,9.40
2022-12-23T02:12:15.248Z,9.40
2022-12-23T02:15:39.991Z,9.50
2022-12-23T02:18:48.697Z,9.50
2022-12-23T02:22:07.914Z,9.50
2022-12-23T02:25:30.970Z,9.50
2022-12-23T02:28:34.064Z,9.50
2022-12-23T02:31:28.175Z,9.40
2022-12-23T02:34:19.228Z,9.30
2022-12-23T02:37:12.516Z,9.40
2022-12-23T02:40:03.093Z,9.50
2022-12-23T02:42:54.983Z,9.50
2022-12-23T02:45:46.622Z,9.40
2022-12-23T02:48:39.423Z,9.50
2022-12-23T02:51:31.083Z,9.50
2022-12-23T02:54:27.575Z,9.40
2022-12-23T02:57:17.236Z,9.40
2022-12-23T03:00:04.538Z,9.50
2022-12-23T03:02:51.026Z,9.50
2022-12-23T03:05:43.691Z,9.40
2022-12-23T03:08:33.786Z,9.40
2022-12-23T03:11:20.670Z,9.40
2022-12-23T03:14:29.180Z,9.50
2022-12-23T03:17:29.833Z,9.50
2022-12-23T03:20:25.575Z,9.40
2022-12-23T03:23:22.490Z,9.40
2022-12-23T03:26:13.096Z,9.40
2022-12-23T03:29:05.346Z,9.40
2022-12-23T03:31:54.323Z,9.50
2022-12-23T03:34:45.024Z,9.60
2022-12-23T03:37:36.034Z,9.50
2022-12-23T03:40:28.322Z,9.50
2022-12-23T03:43:21.038Z,9.60
2022-12-23T03:46:12.485Z,9.60
2022-12-23T03:49:03.324Z,9.60
2022-12-23T03:51:54.616Z,9.60
2022-12-23T03:54:46.313Z,9.50
2022-12-23T03:57:43.114Z,9.60
2022-12-23T04:00:34.959Z,9.60
2022-12-23T04:03:30.421Z,9.60
2022-12-23T04:06:18.633Z,9.60
2022-12-23T04:09:06.366Z,9.60
2022-12-23T04:11:53.304Z,9.60
2022-12-23T04:14:48.042Z,9.60
2022-12-23T04:17:34.408Z,9.60
2022-12-23T04:20:21.337Z,9.60
2022-12-23T04:23:07.971Z,9.60
2022-12-23T04:25:54.331Z,9.60
2022-12-23T04:28:40.833Z,9.60
2022-12-23T04:31:28.975Z,9.70
2022-12-23T04:34:15.419Z,9.70
2022-12-23T04:37:01.694Z,9.70
2022-12-23T04:39:48.102Z,9.70
2022-12-23T04:42:34.378Z,9.70
2022-12-23T04:45:20.846Z,9.70
2022-12-23T04:48:09.341Z,9.70
2022-12-23T04:50:55.854Z,9.60
2022-12-23T04:53:42.216Z,9.60
2022-12-23T04:56:28.500Z,9.70
2022-12-23T04:59:14.933Z,9.60
2022-12-23T05:02:01.443Z,9.60
2022-12-23T05:04:49.191Z,9.60
2022-12-23T05:07:35.889Z,9.60
2022-12-23T05:10:22.168Z,9.60
2022-12-23T05:13:08.465Z,9.60
2022-12-23T05:15:55.856Z,9.60
2022-12-23T05:18:42.233Z,9.70
2022-12-23T05:21:30.047Z,9.70
2022-12-23T05:24:16.476Z,9.70
2022-12-23T05:27:02.719Z,9.80
2022-12-23T05:29:49.201Z,9.80
2022-12-23T05:32:35.554Z,9.70
2022-12-23T05:35:22.135Z,9.70
2022-12-23T05:38:10.276Z,9.70
2022-12-23T05:40:56.692Z,9.70
2022-12-23T05:43:42.989Z,9.70
2022-12-23T05:46:29.420Z,9.70
2022-12-23T05:49:16.086Z,9.60
2022-12-23T05:52:02.512Z,9.80
2022-12-23T05:54:50.555Z,9.80
2022-12-23T05:57:36.995Z,9.80
2022-12-23T06:00:23.557Z,9.80
2022-12-23T06:03:10.440Z,9.80
2022-12-23T06:05:57.343Z,9.80
2022-12-23T06:08:43.618Z,9.80
2022-12-23T06:11:31.390Z,9.80
2022-12-23T06:14:18.023Z,9.80
2022-12-23T06:17:04.236Z,9.80
2022-12-23T06:19:50.610Z,9.80
2022-12-23T06:22:37.169Z,9.80
2022-12-23T06:25:23.586Z,9.80
2022-12-23T06:28:11.366Z,9.70
2022-12-23T06:30:58.926Z,9.80
2022-12-23T06:33:45.553Z,9.80
2022-12-23T06:36:31.781Z,9.80
2022-12-23T06:39:18.238Z,9.80
2022-12-23T06:42:04.746Z,9.80
2022-12-23T06:44:52.469Z,9.80
2022-12-23T06:47:39.178Z,9.80
2022-12-23T06:50:25.404Z,9.80
2022-12-23T06:53:11.808Z,9.80
2022-12-23T06:56:01.962Z,9.80
2022-12-23T06:58:48.569Z,9.80
2022-12-23T07:01:36.313Z,9.80
2022-12-23T07:04:22.951Z,9.80
2022-12-23T07:07:09.411Z,9.80
2022-12-23T07:09:55.615Z,9.80
2022-12-23T07:12:47.412Z,9.80
2022-12-23T07:15:37.419Z,9.80
2022-12-23T07:18:26.474Z,9.80
2022-12-23T07:21:21.196Z,9.70
2022-12-23T07:24:13.130Z,9.70
2022-12-23T07:26:59.716Z,9.70
2022-12-23T07:29:45.931Z,9.60
2022-12-23T07:32:32.154Z,9.60
2022-12-23T07:35:20.572Z,9.60
2022-12-23T07:38:07.155Z,9.60
2022-12-23T07:40:53.521Z,9.50
2022-12-23T07:43:40.046Z,9.40
2022-12-23T07:46:27.029Z,9.40
2022-12-23T07:49:13.397Z,9.40
2022-12-23T07:52:01.277Z,9.40
2022-12-23T07:54:47.546Z,9.50
2022-12-23T07:57:37.907Z,9.50
2022-12-23T08:00:24.929Z,9.50
2022-12-23T08:03:13.089Z,9.60
2022-12-23T08:06:01.695Z,9.50
2022-12-23T08:08:49.644Z,9.70
2022-12-23T08:11:35.995Z,9.80
2022-12-23T08:14:23.182Z,9.80
2022-12-23T08:17:09.998Z,9.80
2022-12-23T08:19:56.866Z,9.70
2022-12-23T08:22:43.281Z,9.80
2022-12-23T08:25:31.133Z,9.90
2022-12-23T08:28:17.484Z,9.90
2022-12-23T08:31:05.948Z,9.90
2022-12-23T08:33:54.897Z,10.00
2022-12-23T08:36:41.761Z,10.00
2022-12-23T08:39:28.270Z,10.20
2022-12-23T08:42:15.921Z,10.10
2022-12-23T08:45:02.274Z,10.10
2022-12-23T08:47:48.700Z,10.10
2022-12-23T08:50:38.929Z,10.10
2022-12-23T08:53:25.276Z,10.10
2022-12-23T08:56:13.964Z,10.10
2022-12-23T08:59:02.307Z,10.10
2022-12-23T09:01:49.335Z,10.20
2022-12-23T09:04:37.571Z,10.30
2022-12-23T09:07:23.980Z,10.60
2022-12-23T09:10:10.509Z,11.10
2022-12-23T09:12:58.141Z,11.70
2022-12-23T09:15:46.638Z,12.10
2022-12-23T09:18:33.205Z,11.90
2022-12-23T09:21:21.712Z,11.60
2022-12-23T09:24:08.442Z,11.50
2022-12-23T09:26:54.715Z,11.60
2022-12-23T09:29:40.859Z,11.80
2022-12-23T09:32:28.799Z,12.00
2022-12-23T09:35:15.286Z,12.10
2022-12-23T09:38:01.996Z,12.20
2022-12-23T09:40:48.419Z,12.20
2022-12-23T09:43:46.975Z,12.10
2022-12-23T09:46:36.823Z,12.10
2022-12-23T09:49:25.497Z,12.20
2022-12-23T09:52:16.115Z,12.10
2022-12-23T09:55:02.697Z,12.10
2022-12-23T09:57:56.652Z,12.20
2022-12-23T10:00:51.600Z,12.20
2022-12-23T10:03:49.226Z,12.20
2022-12-23T10:06:39.650Z,12.10
2022-12-23T10:09:26.433Z,12.00
2022-12-23T10:12:27.309Z,11.90
2022-12-23T10:15:24.219Z,11.80
2022-12-23T10:18:18.274Z,11.80
2022-12-23T10:21:08.668Z,11.80
2022-12-23T10:23:56.713Z,11.70
2022-12-23T10:26:49.657Z,11.60
2022-12-23T10:29:35.999Z,11.50
2022-12-23T10:32:29.403Z,11.50
2022-12-23T10:35:25.107Z,11.50
2022-12-23T10:38:35.486Z,11.40
2022-12-23T10:41:33.117Z,11.50
2022-12-23T10:44:47.370Z,11.60
2022-12-23T10:47:52.102Z,11.70
2022-12-23T10:51:00.614Z,11.60
2022-12-23T10:53:51.329Z,11.60
2022-12-23T10:56:39.502Z,11.50
2022-12-23T10:59:28.036Z,11.40
2022-12-23T11:02:35.744Z,11.40
2022-12-23T11:05:29.158Z,11.60
2022-12-23T11:08:15.974Z,11.50
2022-12-23T11:11:02.352Z,11.50
2022-12-23T11:13:50.983Z,11.60
2022-12-23T11:16:46.947Z,11.60
2022-12-23T11:19:34.575Z,11.60
2022-12-23T11:22:25.212Z,11.50
2022-12-23T11:25:28.371Z,11.40
2022-12-23T11:28:19.535Z,11.40
2022-12-23T11:31:11.797Z,11.40
2022-12-23T11:34:00.726Z,11.40
2022-12-23T11:36:56.633Z,11.40
2022-12-23T11:39:47.721Z,11.60
2022-12-23T11:42:35.607Z,11.70
2022-12-23T11:45:25.271Z,11.70
2022-12-23T11:48:28.759Z,11.60
2022-12-23T11:51:26.667Z,11.70
2022-12-23T11:54:18.438Z,11.80
2022-12-23T11:57:08.530Z,11.80
2022-12-23T12:00:00.345Z,11.60
2022-12-23T12:02:50.025Z,11.50
2022-12-23T12:05:40.703Z,11.20
2022-12-23T12:08:31.731Z,11.30
2022-12-23T12:11:23.152Z,11.20
2022-12-23T12:14:20.209Z,11.20
2022-12-23T12:17:17.292Z,11.00
2022-12-23T12:20:07.221Z,10.90
2022-12-23T12:23:00.364Z,10.80
2022-12-23T12:25:51.125Z,10.70
2022-12-23T12:28:39.794Z,10.70
2022-12-23T12:31:30.872Z,10.80
2022-12-23T12:34:31.076Z,10.80
2022-12-23T12:37:28.336Z,10.70
2022-12-23T12:40:26.012Z,10.60
2022-12-23T12:43:27.246Z,10.60
2022-12-23T12:46:25.782Z,10.60
2022-12-23T12:49:21.366Z,10.60
2022-12-23T12:52:13.745Z,10.60
2022-12-23T12:55:05.747Z,10.60
2022-12-23T12:57:53.633Z,10.70
2022-12-23T13:00:48.069Z,10.60
2022-12-23T13:04:00.874Z,10.60
2022-12-23T13:06:56.680Z,10.50
2022-12-23T13:09:52.492Z,10.60
2022-12-23T13:12:51.228Z,10.60
2022-12-23T13:15:47.793Z,10.60
2022-12-23T13:18:44.599Z,10.70
2022-12-23T13:21:38.591Z,10.70
2022-12-23T13:24:30.527Z,10.70
2022-12-23T13:27:21.227Z,10.70
2022-12-23T13:30:13.803Z,10.70
2022-12-23T13:33:13.560Z,10.60
2022-12-23T13:36:11.299Z,10.70
2022-12-23T13:39:17.704Z,10.60
2022-12-23T13:42:06.466Z,10.40
2022-12-23T13:44:53.635Z,10.50
2022-12-23T13:47:48.134Z,10.50
2022-12-23T13:50:42.057Z,10.50
2022-12-23T13:53:41.087Z,10.60
2022-12-23T13:56:32.708Z,10.60
2022-12-23T13:59:19.451Z,10.70
2022-12-23T14:02:47.529Z,10.60
2022-12-23T14:05:38.844Z,10.50
2022-12-23T14:08:34.883Z,10.60
2022-12-23T14:11:25.303Z,10.60
2022-12-23T14:14:22.339Z,10.60
2022-12-23T14:17:16.494Z,10.60
2022-12-23T14:20:21.053Z,10.60
2022-12-23T14:23:21.407Z,10.60
2022-12-23T14:26:41.126Z,10.60
2022-12-23T14:29:46.448Z,10.70
2022-12-23T14:32:42.881Z,10.70
2022-12-23T14:35:54.131Z,10.60
2022-12-23T14:38:42.346Z,10.60
2022-12-23T14:41:39.285Z,10.50
2022-12-23T14:44:45.805Z,10.50
2022-12-23T14:47:40.369Z,10.30
2022-12-23T14:50:40.801Z,10.30
2022-12-23T14:53:28.417Z,10.20
2022-12-23T14:56:28.982Z,10.20
2022-12-23T14:59:21.506Z,10.30
2022-12-23T15:02:18.814Z,10.30
2022-12-23T15:05:06.106Z,10.30
2022-12-23T15:07:55.923Z,10.40
2022-12-23T15:10:45.325Z,10.40
2022-12-23T15:13:34.308Z,10.40
2022-12-23T15:16:27.404Z,10.30
2022-12-23T15:19:20.122Z,10.20
2022-12-23T15:22:20.708Z,10.20
2022-12-23T15:25:21.731Z,10.20
2022-12-23T15:28:19.177Z,10.10
2022-12-23T15:31:16.853Z,10.00
2022-12-23T15:34:13.091Z,10.00
2022-12-23T15:37:03.263Z,9.90
2022-12-23T15:39:55.256Z,10.00
2022-12-23T15:42:49.754Z,9.90
2022-12-23T15:45:38.390Z,10.00
2022-12-23T15:48:29.661Z,9.90
2022-12-23T15:51:49.689Z,9.80
2022-12-23T15:54:32.314Z,9.90
2022-12-23T15:57:21.234Z,9.80
2022-12-23T16:00:19.849Z,9.90
2022-12-23T16:03:12.051Z,9.80
2022-12-23T16:06:14.581Z,9.70
2022-12-23T16:09:02.537Z,9.80
2022-12-23T16:11:56.333Z,9.80
2022-12-23T16:14:43.245Z,9.70
2022-12-23T16:17:34.747Z,9.60
2022-12-23T16:20:24.555Z,9.70
2022-12-23T16:23:13.868Z,9.60
2022-12-23T16:26:02.408Z,9.50
2022-12-23T16:31:42.805Z,9.30
2022-12-23T16:34:32.877Z,9.20
2022-12-23T16:37:19.349Z,9.10
2022-12-23T16:40:14.291Z,9.10
2022-12-23T16:43:00.859Z,9.10
2022-12-23T16:45:51.543Z,9.00
2022-12-23T16:48:41.118Z,9.00
2022-12-23T16:51:28.935Z,9.10
2022-12-23T16:54:17.347Z,8.90
2022-12-23T16:57:05.195Z,9.00
2022-12-23T16:59:51.682Z,8.90
2022-12-23T17:02:38.067Z,9.00
2022-12-23T17:05:25.020Z,9.00
2022-12-23T17:08:11.651Z,9.00
2022-12-23T17:10:58.589Z,9.00
2022-12-23T17:13:46.951Z,8.90
2022-12-23T17:16:33.841Z,8.90
2022-12-23T17:19:27.989Z,9.00
2022-12-23T17:22:15.914Z,9.00
2022-12-23T17:25:02.545Z,8.90
2022-12-23T17:27:50.005Z,8.90
2022-12-23T17:30:37.855Z,8.80
2022-12-23T17:33:27.801Z,8.80
2022-12-23T17:36:15.810Z,8.80
2022-12-23T17:39:02.118Z,8.90
2022-12-23T17:41:49.014Z,9.00
2022-12-23T17:44:35.493Z,9.00
2022-12-23T17:47:23.513Z,9.00
2022-12-23T17:50:10.405Z,9.00
2022-12-23T17:52:56.743Z,9.10
2022-12-23T17:55:43.092Z,9.10
2022-12-23T17:58:29.352Z,9.00
2022-12-23T18:01:19.080Z,9.00
2022-12-23T18:04:07.390Z,9.00
2022-12-23T18:06:53.937Z,8.90
2022-12-23T18:09:40.418Z,9.00
2022-12-23T18:12:35.069Z,8.80
2022-12-23T18:15:24.082Z,8.80
2022-12-23T18:18:19.019Z,8.80
2022-12-23T18:21:13.574Z,8.90
2022-12-23T18:24:01.075Z,8.90
2022-12-23T18:26:47.464Z,8.80
2022-12-23T18:29:33.763Z,8.80
2022-12-23T18:32:26.532Z,8.90
2022-12-23T18:35:28.843Z,8.90
2022-12-23T18:38:17.904Z,8.90
2022-12-23T18:41:04.451Z,9.00
2022-12-23T18:43:51.489Z,8.90
2022-12-23T18:46:37.885Z,8.90
2022-12-23T18:49:24.705Z,8.80
2022-12-23T18:52:13.336Z,8.90
2022-12-23T18:55:01.286Z,8.90
2022-12-23T18:57:48.208Z,9.00
2022-12-23T19:00:34.773Z,8.90
2022-12-23T19:03:23.884Z,9.00
2022-12-23T19:06:17.297Z,9.00
2022-12-23T19:09:04.967Z,9.00
2022-12-23T19:11:54.104Z,9.00
2022-12-23T19:14:41.043Z,9.00
2022-12-23T19:17:27.608Z,9.00
2022-12-23T19:20:16.129Z,9.10
2022-12-23T19:23:02.411Z,9.10
2022-12-23T19:25:54.811Z,9.10
2022-12-23T19:28:43.687Z,9.10
2022-12-23T19:31:30.449Z,9.00
2022-12-23T19:34:17.141Z,9.10
2022-12-23T19:37:03.660Z,9.10
2022-12-23T19:39:50.167Z,9.10
2022-12-23T19:42:38.448Z,9.20
2022-12-23T19:45:26.259Z,9.10
2022-12-23T19:48:12.805Z,9.10
2022-12-23T19:51:00.067Z,9.10
2022-12-23T19:53:47.413Z,9.10
2022-12-23T19:56:35.219Z,9.10
2022-12-23T19:59:21.601Z,9.20
2022-12-23T20:02:13.636Z,9.30
2022-12-23T20:05:00.388Z,9.20
2022-12-23T20:07:46.793Z,9.20
2022-12-23T20:10:32.992Z,9.10
2022-12-23T20:13:19.399Z,9.20
2022-12-23T20:16:06.819Z,9.10
2022-12-23T20:18:55.233Z,9.10
2022-12-23T20:21:41.851Z,9.00
2022-12-23T20:24:28.185Z,9.10
2022-12-23T20:27:16.113Z,9.10
2022-12-23T20:30:02.818Z,9.00
2022-12-23T20:32:49.222Z,8.90
2022-12-23T20:35:37.541Z,8.90
2022-12-23T20:38:23.857Z,8.90
2022-12-23T20:41:12.544Z,8.70
2022-12-23T20:47:06.931Z,9.00
2022-12-23T20:49:53.208Z,9.10
2022-12-23T20:52:40.932Z,9.10
2022-12-23T20:55:27.232Z,9.10
2022-12-23T20:58:31.422Z,9.20
2022-12-23T21:01:18.388Z,9.30
2022-12-23T21:04:08.099Z,9.30
2022-12-23T21:06:54.878Z,9.40
2022-12-23T21:09:42.510Z,9.40
2022-12-23T21:12:29.084Z,9.40
2022-12-23T21:15:15.654Z,9.40
2022-12-23T21:18:02.284Z,9.40
2022-12-23T21:20:48.708Z,9.40
2022-12-23T21:23:38.328Z,9.50
2022-12-23T21:26:28.586Z,9.50
2022-12-23T21:29:15.767Z,9.50
2022-12-23T21:32:02.262Z,9.50
2022-12-23T21:34:48.654Z,9.50
2022-12-23T21:37:34.872Z,9.70
2022-12-23T21:40:21.162Z,9.60
2022-12-23T21:43:09.119Z,9.60
2022-12-23T21:46:00.008Z,9.60
2022-12-23T21:48:47.243Z,9.60
2022-12-23T21:51:40.114Z,9.60
2022-12-23T21:54:26.705Z,9.50
2022-12-23T21:57:13.536Z,9.50
2022-12-23T22:00:01.162Z,9.50
2022-12-23T22:02:47.510Z,9.40
2022-12-23T22:05:33.865Z,9.30
2022-12-23T22:08:20.100Z,9.30
2022-12-23T22:11:08.368Z,9.20
2022-12-23T22:13:56.755Z,9.10
2022-12-23T22:16:45.252Z,9.10
2022-12-23T22:19:31.622Z,9.10
2022-12-23T22:22:17.922Z,9.20
2022-12-23T22:25:04.472Z,9.30
2022-12-23T22:27:51.064Z,9.30
2022-12-23T22:30:37.509Z,9.20
2022-12-23T22:33:25.175Z,9.30
2022-12-23T22:36:12.364Z,9.30
2022-12-23T22:39:00.954Z,9.30
2022-12-23T22:41:47.487Z,9.40
2022-12-23T22:44:34.006Z,9.40
2022-12-23T22:47:20.457Z,9.30
2022-12-23T22:50:09.484Z,9.40
2022-12-23T22:52:56.016Z,9.50
2022-12-23T22:55:42.377Z,9.50
2022-12-23T22:58:31.165Z,9.50
2022-12-23T23:01:23.227Z,9.60
2022-12-23T23:04:11.305Z,9.60
2022-12-23T23:06:59.272Z,9.70
2022-12-23T23:09:46.007Z,9.50
2022-12-23T23:12:32.296Z,9.50
2022-12-23T23:15:19.103Z,9.50
2022-12-23T23:18:05.668Z,9.50
2022-12-23T23:20:52.926Z,9.50
2022-12-23T23:23:41.001Z,9.50
2022-12-23T23:26:27.657Z,9.50
2022-12-23T23:29:14.446Z,9.50
2022-12-23T23:32:01.073Z,9.50
2022-12-23T23:34:47.230Z,9.50
2022-12-23T23:37:33.526Z,9.60
2022-12-23T23:40:21.306Z,9.70
2022-12-23T23:43:07.541Z,9.70
2022-12-23T23:45:53.757Z,9.70
2022-12-23T23:48:40.753Z,9.70
2022-12-23T23:51:27.571Z,9.70
2022-12-23T23:54:14.262Z,9.70
2022-12-23T23:57:01.911Z,9.80
2022-12-23T23:59:48.536Z,9.70
